createdAt,value
2023-03-17T00:01:36.840Z,100235.31
2023-03-17T00:05:38.909Z,100239.16
2023-03-17T00:09:40.700Z,100244.31
2023-03-17T00:13:43.474Z,100244.38
2023-03-17T00:17:45.677Z,100239.72
2023-03-17T00:21:47.901Z,100233.75
2023-03-17T00:25:49.666Z,100231.81
2023-03-17T00:29:50.967Z,100233.41
2023-03-17T00:33:53.968Z,100250.84
2023-03-17T00:37:58.654Z,100265.09
2023-03-17T00:42:02.374Z,100282.56
2023-03-17T00:46:35.863Z,100290.94
2023-03-17T00:50:38.434Z,100285.59
2023-03-17T00:54:39.980Z,100297.47
2023-03-17T00:58:42.740Z,100292.81
2023-03-17T01:02:45.476Z,100285.06
2023-03-17T01:06:47.848Z,100280.69
2023-03-17T01:10:49.706Z,100276.81
2023-03-17T01:14:54.607Z,100279.00
2023-03-17T01:19:12.834Z,100280.19
2023-03-17T01:23:23.852Z,100268.59
2023-03-17T01:27:25.562Z,100262.03
2023-03-17T01:31:29.878Z,100263.22
2023-03-17T01:35:41.314Z,100251.19
2023-03-17T01:39:42.695Z,100247.97
2023-03-17T01:43:46.621Z,100229.81
2023-03-17T01:47:47.977Z,100208.84
2023-03-17T01:51:49.268Z,100202.97
2023-03-17T01:55:51.617Z,100198.44
2023-03-17T01:59:59.925Z,100211.56
2023-03-17T02:04:01.320Z,100209.69
2023-03-17T02:08:03.117Z,100203.06
2023-03-17T02:12:06.935Z,100199.31
2023-03-17T02:16:15.828Z,100183.03
2023-03-17T02:20:17.126Z,100173.63
2023-03-17T02:24:24.624Z,100176.31
2023-03-17T02:28:30.851Z,100172.22
2023-03-17T02:32:36.110Z,100173.56
2023-03-17T02:36:37.639Z,100158.59
2023-03-17T02:40:38.970Z,100164.91
2023-03-17T02:44:40.410Z,100181.47
2023-03-17T02:48:42.755Z,100179.13
2023-03-17T02:52:44.063Z,100176.28
2023-03-17T02:56:45.441Z,100177.84
2023-03-17T03:00:46.723Z,100167.91
2023-03-17T03:04:48.714Z,100171.53
2023-03-17T03:08:50.813Z,100166.69
2023-03-17T03:12:52.309Z,100177.25
2023-03-17T03:16:54.314Z,100185.94
2023-03-17T03:20:55.892Z,100174.06
2023-03-17T03:24:57.279Z,100171.44
2023-03-17T03:28:59.920Z,100172.63
2023-03-17T03:33:02.261Z,100163.59
2023-03-17T03:37:03.690Z,100164.28
2023-03-17T03:41:06.400Z,100145.16
2023-03-17T03:45:08.464Z,100150.88
2023-03-17T03:49:09.826Z,100151.63
2023-03-17T03:53:11.158Z,100160.47
2023-03-17T03:57:12.554Z,100169.91
2023-03-17T04:01:14.409Z,100181.69
2023-03-17T04:05:18.513Z,100179.91
2023-03-17T04:09:19.880Z,100168.88
2023-03-17T04:13:21.143Z,100177.59
2023-03-17T04:17:22.715Z,100172.56
2023-03-17T04:21:24.170Z,100170.94
2023-03-17T04:25:25.951Z,100174.78
2023-03-17T04:29:27.520Z,100181.00
2023-03-17T04:33:29.052Z,100173.06
2023-03-17T04:37:32.296Z,100180.66
2023-03-17T04:41:35.128Z,100190.97
2023-03-17T04:45:37.216Z,100169.56
2023-03-17T04:49:38.673Z,100161.34
2023-03-17T04:53:40.140Z,100154.97
2023-03-17T04:57:41.504Z,100150.84
2023-03-17T05:01:42.959Z,100146.03
2023-03-17T05:05:44.229Z,100169.22
2023-03-17T05:09:46.325Z,100160.63
2023-03-17T05:13:47.702Z,100165.50
2023-03-17T05:17:49.061Z,100170.59
2023-03-17T05:21:50.595Z,100167.47
2023-03-17T05:25:52.694Z,100166.31
2023-03-17T05:29:54.058Z,100168.94
2023-03-17T05:33:56.497Z,100165.03
2023-03-17T05:37:57.966Z,100159.94
2023-03-17T05:41:59.367Z,100161.16
2023-03-17T05:46:00.853Z,100160.44
2023-03-17T05:50:02.890Z,100161.72
2023-03-17T05:54:04.657Z,100153.16
2023-03-17T05:58:06.495Z,100150.09
2023-03-17T06:02:08.963Z,100143.34
2023-03-17T06:06:10.536Z,100151.91
2023-03-17T06:10:12.648Z,100166.09
2023-03-17T06:14:14.512Z,100159.38
2023-03-17T06:18:16.133Z,100166.03
2023-03-17T06:22:17.788Z,100159.78
2023-03-17T06:26:19.148Z,100153.81
2023-03-17T06:30:21.643Z,100162.44
2023-03-17T06:34:24.936Z,100147.38
2023-03-17T06:38:26.253Z,100138.88
2023-03-17T06:42:28.097Z,100139.75
2023-03-17T06:46:29.634Z,100140.69
2023-03-17T06:50:31.168Z,100147.88
2023-03-17T06:54:32.687Z,100142.88
2023-03-17T06:58:34.012Z,100145.78
2023-03-17T07:02:35.366Z,100143.06
2023-03-17T07:06:36.680Z,100144.59
2023-03-17T07:10:38.416Z,100152.38
2023-03-17T07:14:40.360Z,100158.28
2023-03-17T07:18:41.715Z,100161.88
2023-03-17T07:22:43.319Z,100159.22
2023-03-17T07:26:45.122Z,100149.59
2023-03-17T07:30:48.392Z,100144.84
2023-03-17T07:34:50.133Z,100134.41
2023-03-17T07:38:51.495Z,100127.50
2023-03-17T07:42:52.858Z,100122.56
2023-03-17T07:46:54.674Z,100122.72
2023-03-17T07:50:56.392Z,100133.25
2023-03-17T07:54:58.371Z,100139.34
2023-03-17T07:58:59.866Z,100125.19
2023-03-17T08:03:09.882Z,100125.34
2023-03-17T08:07:12.843Z,100129.06
2023-03-17T08:11:14.355Z,100124.72
2023-03-17T08:15:15.753Z,100132.84
2023-03-17T08:19:17.063Z,100129.34
2023-03-17T08:23:19.534Z,100120.38
2023-03-17T08:27:21.457Z,100134.22
2023-03-17T08:31:23.192Z,100131.13
2023-03-17T08:35:24.864Z,100138.09
2023-03-17T08:39:26.689Z,100133.81
2023-03-17T08:43:28.704Z,100130.88
2023-03-17T08:47:30.310Z,100139.16
2023-03-17T08:51:35.995Z,100134.78
2023-03-17T08:55:37.410Z,100104.69
2023-03-17T08:59:39.041Z,100100.63
2023-03-17T09:03:40.821Z,100112.97
2023-03-17T09:07:42.391Z,100096.31
2023-03-17T09:11:43.859Z,100117.94
2023-03-17T09:15:46.032Z,100115.22
2023-03-17T09:19:47.966Z,100132.38
2023-03-17T09:23:49.295Z,100125.13
2023-03-17T09:27:51.314Z,100121.22
2023-03-17T09:31:55.483Z,100119.34
2023-03-17T09:35:57.399Z,100123.72
2023-03-17T09:39:58.726Z,100110.59
2023-03-17T09:44:29.998Z,100106.81
2023-03-17T09:48:37.291Z,100106.56
2023-03-17T09:52:38.679Z,100092.50
2023-03-17T09:56:44.004Z,100102.97
2023-03-17T10:00:46.330Z,100100.06
2023-03-17T10:04:48.639Z,100101.78
2023-03-17T10:09:00.630Z,100097.69
2023-03-17T10:13:15.825Z,100088.31
2023-03-17T10:17:28.252Z,100111.63
2023-03-17T10:21:33.503Z,100106.97
2023-03-17T10:25:36.592Z,100105.22
2023-03-17T10:29:38.344Z,100116.97
2023-03-17T10:33:40.104Z,100105.66
2023-03-17T10:37:43.896Z,100084.03
2023-03-17T10:42:09.986Z,100098.47
2023-03-17T10:46:24.268Z,100082.59
2023-03-17T10:50:32.545Z,100074.63
2023-03-17T10:54:36.997Z,100065.78
2023-03-17T10:58:46.901Z,100076.19
2023-03-17T11:02:57.441Z,100075.09
2023-03-17T11:07:05.221Z,100064.28
2023-03-17T11:11:10.128Z,100065.00
2023-03-17T11:15:17.836Z,100066.19
2023-03-17T11:19:22.610Z,100067.91
2023-03-17T11:23:39.550Z,100061.34
2023-03-17T11:27:52.116Z,100041.31
2023-03-17T11:32:07.938Z,100049.97
2023-03-17T11:36:19.674Z,100042.06
2023-03-17T11:40:35.181Z,100047.56
2023-03-17T11:45:30.600Z,100026.16
2023-03-17T11:49:37.413Z,100021.38
2023-03-17T11:53:51.350Z,100017.81
2023-03-17T11:58:03.550Z,100022.13
2023-03-17T12:02:19.076Z,100019.38
2023-03-17T12:06:31.733Z,100013.22
2023-03-17T12:10:52.305Z,100020.34
2023-03-17T12:14:56.519Z,100018.78
2023-03-17T12:19:16.445Z,100034.34
2023-03-17T12:23:29.422Z,100033.53
2023-03-17T12:27:42.635Z,100030.06
2023-03-17T12:31:48.835Z,100018.81
2023-03-17T12:35:50.250Z,100006.16
2023-03-17T12:40:00.754Z,100004.28
2023-03-17T12:44:32.945Z,99994.56
2023-03-17T12:49:17.994Z,99989.50
2023-03-17T12:53:31.526Z,99987.81
2023-03-17T12:57:42.156Z,99988.81
2023-03-17T13:01:57.385Z,99978.28
2023-03-17T13:06:02.955Z,99971.97
2023-03-17T13:10:18.803Z,99976.50
2023-03-17T13:14:39.150Z,99976.28
2023-03-17T13:18:40.414Z,99963.75
2023-03-17T13:23:00.415Z,99962.09
2023-03-17T13:27:04.472Z,99963.09
2023-03-17T13:31:28.498Z,99952.69
2023-03-17T13:35:45.110Z,99955.94
2023-03-17T13:40:11.067Z,99961.41
2023-03-17T13:44:40.192Z,99959.81
2023-03-17T13:48:41.654Z,99955.06
2023-03-17T13:52:49.385Z,99945.19
2023-03-17T13:56:53.020Z,99954.34
2023-03-17T14:00:59.767Z,99953.97
2023-03-17T14:05:06.065Z,99954.31
2023-03-17T14:09:18.217Z,99952.22
2023-03-17T14:13:29.799Z,99950.56
2023-03-17T14:17:45.222Z,99947.66
2023-03-17T14:21:46.798Z,99952.78
2023-03-17T14:25:50.331Z,99953.00
2023-03-17T14:29:52.393Z,99935.09
2023-03-17T14:34:01.230Z,99930.38
2023-03-17T14:38:03.004Z,99935.88
2023-03-17T14:42:05.308Z,99950.94
2023-03-17T14:46:13.009Z,99955.53
2023-03-17T14:50:32.281Z,99957.69
2023-03-17T14:54:35.154Z,99958.88
2023-03-17T14:58:41.461Z,99966.47
2023-03-17T15:02:55.278Z,99956.69
2023-03-17T15:07:02.288Z,99946.03
2023-03-17T15:11:05.988Z,99954.81
2023-03-17T15:15:32.380Z,99959.97
2023-03-17T15:19:42.643Z,99942.63
2023-03-17T15:23:48.898Z,99940.66
2023-03-17T15:27:51.600Z,99935.03
2023-03-17T15:31:53.232Z,99953.88
2023-03-17T15:35:56.792Z,99958.94
2023-03-17T15:39:59.786Z,99962.22
2023-03-17T15:44:02.936Z,99972.16
2023-03-17T15:48:07.132Z,99956.66
2023-03-17T15:52:15.874Z,99944.34
2023-03-17T15:56:21.404Z,99952.38
2023-03-17T16:00:25.333Z,99958.78
2023-03-17T16:04:26.762Z,99944.19
2023-03-17T16:08:28.882Z,99939.44
2023-03-17T16:12:30.245Z,99962.81
2023-03-17T16:16:42.837Z,99949.41
2023-03-17T16:20:47.181Z,99949.03
2023-03-17T16:24:48.532Z,99980.38
2023-03-17T16:28:50.327Z,99970.88
2023-03-17T16:32:52.978Z,99979.47
2023-03-17T16:36:54.803Z,99965.22
2023-03-17T16:41:01.285Z,99978.88
2023-03-17T16:45:02.742Z,99959.31
2023-03-17T16:49:05.436Z,99909.88
2023-03-17T16:53:06.875Z,99914.84
2023-03-17T16:57:12.388Z,99978.78
2023-03-17T17:01:19.328Z,100020.25
2023-03-17T17:05:39.101Z,100001.63
2023-03-17T17:09:40.534Z,100008.84
2023-03-17T17:13:44.007Z,100011.72
2023-03-17T17:17:48.938Z,99995.72
2023-03-17T17:21:50.331Z,100017.19
2023-03-17T17:25:52.052Z,100006.22
2023-03-17T17:29:53.405Z,100014.94
2023-03-17T17:33:54.803Z,100019.94
2023-03-17T17:37:56.136Z,99992.41
2023-03-17T17:41:57.426Z,99968.13
2023-03-17T17:45:58.920Z,99991.09
2023-03-17T17:50:00.280Z,99988.53
2023-03-17T17:54:01.623Z,100035.69
2023-03-17T17:58:03.015Z,100023.41
2023-03-17T18:02:04.509Z,100049.63
2023-03-17T18:06:06.067Z,100064.47
2023-03-17T18:10:08.559Z,100071.47
2023-03-17T18:14:10.468Z,100066.13
2023-03-17T18:18:11.915Z,100055.94
2023-03-17T18:22:13.352Z,100037.53
2023-03-17T18:26:16.497Z,100041.03
2023-03-17T18:30:25.534Z,100071.03
2023-03-17T18:34:35.388Z,100079.13
2023-03-17T18:38:37.859Z,100071.19
2023-03-17T18:42:39.430Z,100078.69
2023-03-17T18:46:40.747Z,100074.94
2023-03-17T18:50:42.418Z,100066.69
2023-03-17T18:54:46.808Z,100054.81
2023-03-17T18:58:48.435Z,100064.84
2023-03-17T19:02:51.074Z,100073.78
2023-03-17T19:06:55.931Z,100068.16
2023-03-17T19:10:57.650Z,100057.56
2023-03-17T19:15:01.727Z,100068.38
2023-03-17T19:19:03.462Z,100064.22
2023-03-17T19:23:04.772Z,100045.91
2023-03-17T19:27:06.171Z,100055.47
2023-03-17T19:31:07.753Z,100057.22
2023-03-17T19:35:09.908Z,100055.47
2023-03-17T19:39:11.745Z,100050.41
2023-03-17T19:43:13.068Z,100054.88
2023-03-17T19:47:14.491Z,100067.25
2023-03-17T19:51:16.176Z,100066.13
2023-03-17T19:55:17.881Z,100062.31
2023-03-17T19:59:19.734Z,100063.19
2023-03-17T20:03:22.171Z,100081.94
2023-03-17T20:07:24.526Z,100077.34
2023-03-17T20:11:26.161Z,100085.91
2023-03-17T20:15:28.298Z,100090.38
2023-03-17T20:19:29.705Z,100103.53
2023-03-17T20:23:31.396Z,100120.25
2023-03-17T20:27:35.782Z,100120.00
2023-03-17T20:31:37.477Z,100117.25
2023-03-17T20:35:41.208Z,100117.13
2023-03-17T20:39:42.552Z,100136.25
2023-03-17T20:43:45.418Z,100162.19
2023-03-17T20:47:47.369Z,100142.00
2023-03-17T20:51:48.677Z,100138.41
2023-03-17T20:55:50.466Z,100121.84
2023-03-17T20:59:51.942Z,100124.00
2023-03-17T21:03:53.479Z,100121.84
2023-03-17T21:07:56.538Z,100105.25
2023-03-17T21:11:57.844Z,100120.47
2023-03-17T21:16:00.530Z,100116.38
2023-03-17T21:20:02.232Z,100113.84
2023-03-17T21:24:05.429Z,100105.84
2023-03-17T21:28:07.978Z,100102.81
2023-03-17T21:32:09.705Z,100096.69
2023-03-17T21:36:11.165Z,100102.59
2023-03-17T21:40:13.885Z,100107.19
2023-03-17T21:44:15.915Z,100109.50
2023-03-17T21:48:17.617Z,100116.72
2023-03-17T21:52:20.810Z,100116.72
2023-03-17T21:56:22.478Z,100123.56
2023-03-17T22:00:25.675Z,100128.91
2023-03-17T22:04:28.579Z,100128.50
2023-03-17T22:08:30.424Z,100132.16
2023-03-17T22:12:31.843Z,100137.25
2023-03-17T22:16:33.514Z,100134.84
2023-03-17T22:20:35.734Z,100134.47
2023-03-17T22:24:38.262Z,100127.53
2023-03-17T22:28:40.636Z,100124.66
2023-03-17T22:32:42.127Z,100130.63
2023-03-17T22:36:43.752Z,100126.75
2023-03-17T22:40:45.154Z,100127.97
2023-03-17T22:44:46.592Z,100131.47
2023-03-17T22:48:48.813Z,100139.63
2023-03-17T22:56:51.558Z,100142.34
2023-03-17T23:00:53.899Z,100150.13
2023-03-17T23:04:55.230Z,100150.09
2023-03-17T23:08:57.828Z,100138.59
2023-03-17T23:12:59.187Z,100145.28
2023-03-17T23:17:00.957Z,100137.28
2023-03-17T23:21:03.390Z,100149.00
2023-03-17T23:25:06.160Z,100151.91
2023-03-17T23:29:09.148Z,100150.28
2023-03-17T23:33:10.543Z,100138.94
2023-03-17T23:37:12.015Z,100149.50
2023-03-17T23:41:14.472Z,100156.06
2023-03-17T23:45:20.193Z,100160.03
2023-03-17T23:49:22.089Z,100161.59
2023-03-17T23:53:24.537Z,100167.38
2023-03-17T23:57:26.015Z,100161.97
